Terminal Aerodrome Forecast
Issued by NWS Sterling, VA

Current Version | Previous Version | Text Only | Print | Product List | Glossary Off
Versions: 1 2 3 4 5 6 7 8 9 10 11 12 13 14 15 16 17

000
FTUS41 KLWX 170542
TAFMRB
TAF
KMRB 170542Z 1706/1806 32005KT P6SM SKC
     FM171100 04004KT P6SM BKN250
     FM171200 10004KT P6SM SCT250
     FM172000 15007KT P6SM OVC008
     FM172100 15007KT 2SM -SN OVC008
     FM172200 15007KT 1SM -SN OVC008
     FM180300 18004KT P6SM OVC008
     FM180500 VRB03KT P6SM BKN015=

USA.gov is the U.S. government's official web portal to all federal, state and local government web resources and services.